createdAt,value
2022-10-09T00:02:56.590Z,20.33
2022-10-09T00:07:58.078Z,16.47
2022-10-09T00:12:59.110Z,12.90
2022-10-09T00:18:00.168Z,10.90
2022-10-09T00:23:01.231Z,11.90
2022-10-09T00:28:04.130Z,13.30
2022-10-09T00:33:05.416Z,9.83
2022-10-09T00:38:07.199Z,12.43
2022-10-09T00:43:17.389Z,12.97
2022-10-09T00:48:19.310Z,13.03
2022-10-09T00:53:23.339Z,8.60
2022-10-09T00:58:25.161Z,14.03
2022-10-09T01:03:26.245Z,11.00
2022-10-09T01:08:42.472Z,9.80
2022-10-09T01:14:00.727Z,8.87
2022-10-09T01:19:34.475Z,9.93
2022-10-09T01:24:43.732Z,10.50
2022-10-09T01:29:53.284Z,10.80
2022-10-09T01:34:55.813Z,8.30
2022-10-09T01:39:57.773Z,11.30
2022-10-09T01:44:58.817Z,11.50
2022-10-09T01:50:11.921Z,8.20
2022-10-09T01:55:45.593Z,10.47
2022-10-09T02:01:10.870Z,7.50
2022-10-09T02:06:14.705Z,11.60
2022-10-09T02:11:16.687Z,7.03
2022-10-09T02:16:22.590Z,8.27
2022-10-09T02:21:46.447Z,8.13
2022-10-09T02:26:48.090Z,9.03
2022-10-09T02:31:49.388Z,10.77
2022-10-09T02:36:50.899Z,7.43
2022-10-09T02:41:51.937Z,10.00
2022-10-09T02:46:53.097Z,9.97
2022-10-09T02:51:54.314Z,12.00
2022-10-09T02:56:55.511Z,11.80
2022-10-09T03:01:56.947Z,10.90
2022-10-09T03:06:58.465Z,12.80
2022-10-09T03:11:59.541Z,13.70
2022-10-09T03:17:00.793Z,10.20
2022-10-09T03:22:01.881Z,11.87
2022-10-09T03:27:03.192Z,8.10
2022-10-09T03:32:04.483Z,10.77
2022-10-09T03:37:05.701Z,7.57
2022-10-09T03:42:07.206Z,14.07
2022-10-09T03:47:08.251Z,9.77
2022-10-09T03:52:09.300Z,14.80
2022-10-09T03:57:10.518Z,14.03
2022-10-09T04:02:11.807Z,10.47
2022-10-09T04:07:13.070Z,9.90
2022-10-09T04:12:14.257Z,10.50
2022-10-09T04:17:15.475Z,10.93
2022-10-09T04:22:16.681Z,12.37
2022-10-09T04:27:17.898Z,10.77
2022-10-09T04:32:18.942Z,12.70
2022-10-09T04:37:19.986Z,12.97
2022-10-09T04:42:21.170Z,11.27
2022-10-09T04:47:22.223Z,9.27
2022-10-09T04:52:23.434Z,16.30
2022-10-09T04:57:24.604Z,12.70
2022-10-09T05:02:25.842Z,11.13
2022-10-09T05:07:27.023Z,14.67
2022-10-09T05:12:28.045Z,12.27
2022-10-09T05:17:29.127Z,14.50
2022-10-09T05:22:30.245Z,14.03
2022-10-09T05:27:31.505Z,12.40
2022-10-09T05:32:32.590Z,17.87
2022-10-09T05:37:33.862Z,13.87
2022-10-09T05:42:35.114Z,10.93
2022-10-09T05:47:36.147Z,13.70
2022-10-09T05:52:39.277Z,13.37
2022-10-09T05:57:40.809Z,14.30
2022-10-09T06:02:42.042Z,13.03
2022-10-09T06:07:44.898Z,13.13
2022-10-09T06:12:46.033Z,12.47
2022-10-09T06:17:47.323Z,13.03
2022-10-09T06:22:48.590Z,9.80
2022-10-09T06:27:49.886Z,12.80
2022-10-09T06:32:51.706Z,16.73
2022-10-09T06:37:53.214Z,12.13
2022-10-09T06:42:54.525Z,11.07
2022-10-09T06:47:57.323Z,17.33
2022-10-09T06:52:58.406Z,13.27
2022-10-09T06:57:59.760Z,14.70
2022-10-09T07:03:00.844Z,12.23
2022-10-09T07:08:02.175Z,22.27
2022-10-09T07:13:03.453Z,13.80
2022-10-09T07:18:05.501Z,12.87
2022-10-09T07:23:06.780Z,14.50
2022-10-09T07:28:08.057Z,13.60
2022-10-09T07:33:09.127Z,19.10
2022-10-09T07:38:10.186Z,17.20
2022-10-09T07:43:11.473Z,14.97
2022-10-09T07:48:13.124Z,17.37
2022-10-09T07:53:14.358Z,15.23
2022-10-09T07:58:16.581Z,15.03
2022-10-09T08:03:17.761Z,16.90
2022-10-09T08:08:18.824Z,11.73
2022-10-09T08:13:19.896Z,8.67
2022-10-09T08:18:21.138Z,8.33
2022-10-09T08:23:22.362Z,7.87
2022-10-09T08:28:23.721Z,7.57
2022-10-09T08:33:25.285Z,6.70
2022-10-09T08:38:46.287Z,10.90
2022-10-09T08:43:51.276Z,6.93
2022-10-09T08:48:53.182Z,7.77
2022-10-09T08:54:03.260Z,4.60
2022-10-09T08:59:04.512Z,7.07
2022-10-09T09:04:26.593Z,7.53
2022-10-09T09:09:55.476Z,10.52
2022-10-09T09:15:33.733Z,5.65
2022-10-09T09:20:50.365Z,7.47
2022-10-09T09:25:51.485Z,7.20
2022-10-09T09:30:57.784Z,8.18
2022-10-09T09:36:16.734Z,5.78
2022-10-09T09:41:18.093Z,3.67
2022-10-09T09:46:26.643Z,6.40
2022-10-09T09:51:32.058Z,5.90
2022-10-09T09:57:10.555Z,4.75
2022-10-09T10:02:18.560Z,4.38
2022-10-09T10:07:29.956Z,5.88
2022-10-09T10:12:31.200Z,5.45
2022-10-09T10:17:34.799Z,6.70
2022-10-09T10:22:35.857Z,3.97
2022-10-09T10:27:41.137Z,2.83
2022-10-09T10:33:14.171Z,4.55
2022-10-09T10:38:25.847Z,5.13
2022-10-09T10:43:59.318Z,6.97
2022-10-09T10:49:00.552Z,5.97
2022-10-09T10:54:07.926Z,5.82
2022-10-09T10:59:39.436Z,4.47
2022-10-09T11:04:59.726Z,5.00
2022-10-09T11:10:25.692Z,6.13
2022-10-09T11:15:38.672Z,4.32
2022-10-09T11:21:08.170Z,6.18
2022-10-09T11:26:34.189Z,4.55
2022-10-09T11:31:42.252Z,3.72
2022-10-09T11:36:44.818Z,6.05
2022-10-09T11:41:48.218Z,4.78
2022-10-09T11:47:09.798Z,6.00
2022-10-09T11:52:36.995Z,4.03
2022-10-09T11:57:38.094Z,5.50
2022-10-09T12:02:39.936Z,3.47
2022-10-09T12:07:41.112Z,4.45
2022-10-09T12:12:42.391Z,5.90
2022-10-09T12:17:49.213Z,6.57
2022-10-09T12:23:21.894Z,2.97
2022-10-09T12:28:28.680Z,4.15
2022-10-09T12:33:36.083Z,4.38
2022-10-09T12:38:37.338Z,5.93
2022-10-09T12:43:45.976Z,4.25
2022-10-09T12:48:47.213Z,3.38
2022-10-09T12:53:51.014Z,3.42
2022-10-09T12:58:52.623Z,3.80
2022-10-09T13:04:23.294Z,2.28
2022-10-09T13:09:28.279Z,5.40
2022-10-09T13:14:44.136Z,5.72
2022-10-09T13:19:51.511Z,1.85
2022-10-09T13:24:54.782Z,5.88
2022-10-09T13:29:56.177Z,3.75
2022-10-09T13:34:57.521Z,4.60
2022-10-09T13:39:59.398Z,2.67
2022-10-09T13:45:00.614Z,3.42
2022-10-09T13:50:03.048Z,3.10
2022-10-09T13:55:04.639Z,3.92
2022-10-09T14:00:06.677Z,4.70
2022-10-09T14:05:13.337Z,3.88
2022-10-09T14:10:14.792Z,5.18
2022-10-09T14:15:16.605Z,4.25
2022-10-09T14:20:18.141Z,5.82
2022-10-09T14:25:19.342Z,5.03
2022-10-09T14:30:20.406Z,3.70
2022-10-09T14:35:21.907Z,2.83
2022-10-09T14:40:23.214Z,3.47
2022-10-09T14:45:24.445Z,4.90
2022-10-09T14:50:26.020Z,3.95
2022-10-09T14:55:27.253Z,2.78
2022-10-09T15:00:28.438Z,2.25
2022-10-09T15:05:29.511Z,1.15
2022-10-09T15:10:32.886Z,3.83
2022-10-09T15:15:34.323Z,2.53
2022-10-09T15:20:35.538Z,3.42
2022-10-09T15:25:36.709Z,2.58
2022-10-09T15:30:43.782Z,3.22
2022-10-09T15:35:45.113Z,4.88
2022-10-09T15:40:48.761Z,3.30
2022-10-09T15:45:50.001Z,2.15
2022-10-09T15:50:52.897Z,3.00
2022-10-09T15:55:54.105Z,4.25
2022-10-09T16:00:55.222Z,5.75
2022-10-09T16:05:59.318Z,3.55
2022-10-09T16:11:04.993Z,4.57
2022-10-09T16:16:09.066Z,5.90
2022-10-09T16:21:13.529Z,2.50
2022-10-09T16:26:17.725Z,6.10
2022-10-09T16:31:25.196Z,3.95
2022-10-09T16:36:27.334Z,4.80
2022-10-09T16:41:28.829Z,3.30
2022-10-09T16:51:35.411Z,3.03
2022-10-09T16:56:38.318Z,3.50
2022-10-09T17:01:44.281Z,2.67
2022-10-09T17:06:45.854Z,5.00
2022-10-09T17:11:47.279Z,3.87
2022-10-09T17:16:48.309Z,3.37
2022-10-09T17:21:49.396Z,5.77
2022-10-09T17:26:50.479Z,2.30
2022-10-09T17:31:52.021Z,5.50
2022-10-09T17:36:53.086Z,5.43
2022-10-09T17:41:54.278Z,7.37
2022-10-09T17:46:55.479Z,3.83
2022-10-09T17:51:56.766Z,6.00
2022-10-09T17:56:59.573Z,4.73
2022-10-09T18:02:01.033Z,5.53
2022-10-09T18:07:02.142Z,4.43
2022-10-09T18:12:03.509Z,4.87
2022-10-09T18:17:04.754Z,7.03
2022-10-09T18:22:05.821Z,8.03
2022-10-09T18:27:06.947Z,3.93
2022-10-09T18:32:08.166Z,5.23
2022-10-09T18:37:09.258Z,3.40
2022-10-09T18:42:10.540Z,5.90
2022-10-09T18:47:16.149Z,9.70
2022-10-09T18:52:17.869Z,8.07
2022-10-09T18:57:21.731Z,8.20
2022-10-09T19:02:25.723Z,6.33
2022-10-09T19:07:26.816Z,7.13
2022-10-09T19:12:28.107Z,7.93
2022-10-09T19:17:29.171Z,5.87
2022-10-09T19:22:30.271Z,7.97
2022-10-09T19:27:32.131Z,3.83
2022-10-09T19:32:33.274Z,4.33
2022-10-09T19:37:34.382Z,9.10
2022-10-09T19:42:35.615Z,7.00
2022-10-09T19:47:36.926Z,5.07
2022-10-09T19:52:38.158Z,9.03
2022-10-09T19:57:39.346Z,6.40
2022-10-09T20:02:40.598Z,5.33
2022-10-09T20:07:41.674Z,6.13
2022-10-09T20:12:42.962Z,15.63
2022-10-09T20:17:44.209Z,4.87
2022-10-09T20:22:45.538Z,9.60
2022-10-09T20:27:46.773Z,7.67
2022-10-09T20:32:48.613Z,6.90
2022-10-09T20:37:49.976Z,8.97
2022-10-09T20:42:51.644Z,10.27
2022-10-09T20:47:53.121Z,4.50
2022-10-09T20:52:54.348Z,5.17
2022-10-09T20:57:55.483Z,7.43
2022-10-09T21:02:56.730Z,8.70
2022-10-09T21:07:57.926Z,5.00
2022-10-09T21:12:58.943Z,7.23
2022-10-09T21:18:00.045Z,7.30
2022-10-09T21:23:01.264Z,11.13
2022-10-09T21:28:03.690Z,5.40
2022-10-09T21:33:05.010Z,6.40
2022-10-09T21:38:09.522Z,4.40
2022-10-09T21:43:11.510Z,7.60
2022-10-09T21:48:15.849Z,9.27
2022-10-09T21:53:16.971Z,6.13
2022-10-09T21:58:18.063Z,7.33
2022-10-09T22:03:19.152Z,6.53
2022-10-09T22:08:20.953Z,7.60
2022-10-09T22:13:22.232Z,5.33
2022-10-09T22:18:23.531Z,4.83
2022-10-09T22:23:24.794Z,6.07
2022-10-09T22:28:26.442Z,8.40
2022-10-09T22:33:28.309Z,9.60
2022-10-09T22:38:29.459Z,7.93
2022-10-09T22:43:30.498Z,8.80
2022-10-09T22:48:31.856Z,7.37
2022-10-09T22:53:34.575Z,7.77
2022-10-09T22:58:35.615Z,9.70
2022-10-09T23:03:36.850Z,10.43
2022-10-09T23:08:39.465Z,8.33
2022-10-09T23:13:40.796Z,10.00
2022-10-09T23:18:42.542Z,10.83
2022-10-09T23:23:44.754Z,15.13
2022-10-09T23:28:51.478Z,12.67
2022-10-09T23:33:54.039Z,9.67
2022-10-09T23:38:56.223Z,11.53
2022-10-09T23:43:57.731Z,14.87
2022-10-09T23:48:59.375Z,13.50
2022-10-09T23:54:00.975Z,11.07
2022-10-09T23:59:07.505Z,6.83
